Weather observations for the past three days for
University of Illinois - Willard
Metric (Imperial)
Date Time (cdt) Wind (kph) Vis. (km) Weather Sky Cond. Temperature (ºC) Relative Humidity Wind Chill (°C) Heat Index (°C) Pressure Precipitation (cm)
Air Dwpt 6 hour altimeter (cm) sea level (mb) 1 hr 3 hr 6 hr
Max. Min.
05 18:53 NE 26 G 41 16.09 Fair CLR 28.9 23.9 33.9 28.9 74% 33 76 1012.6
05 17:53 N 19 16.09 Fair CLR 31.1 23.9 66% 37 75.97 1012.0
05 16:53 NW 19 16.09 Fair CLR 32.2 25 66% 39 75.95 1011.8
05 15:53 N 15 16.09 A Few Clouds FEW046 FEW060 32.2 25 66% 39 75.97 1012.0
05 12:53 NW 13 16.09 A Few Clouds FEW065 33.9 23.9 33.9 22.8 56% 40 76.05 1013.1
05 11:53 NW 15 16.09 Mostly Cloudy BKN060 32.2 23.9 62% 38 76.07 1013.5
05 10:53 W 13 16.09 Fair CLR 32.2 24.4 63% 39 76.1 1013.7
05 09:53 W 9 16.09 Fair CLR 31.1 23.9 66% 37 76.07 1013.3
05 08:53 W 11 16.09 Fair CLR 27.8 23.9 79% 32 76.07 1013.5
05 07:53 SW 6 16.09 Fair CLR 26.1 23.3 85% 28 76.07 1013.4
05 06:53 Calm 16.09 Fair CLR 22.8 22.2 25 22.2 96% 76.05 1013.0
05 05:53 SW 6 16.09 Fair CLR 23.9 22.8 94% 23 76.02 1012.8
05 04:53 NW 6 16.09 Partly Cloudy SCT070 22.8 22.2 96% 76.05 1013.0
05 03:53 NW 6 16.09 Fair CLR 22.8 22.2 96% 76.02 1012.8
05 02:53 SW 11 16.09 Fair CLR 23.9 23.3 96% 23 76 1012.5
05 01:53 W 7 16.09 Fair CLR 23.9 23.3 96% 23 76.05 1013.1
05 00:53 Calm 16.09 Fair CLR 24.4 22.8 31.1 23.9 91% 24 76.05 1013.2
04 23:53 Calm 16.09 Fair CLR 24.4 23.3 94% 24 76.07 1013.3
04 22:53 SE 6 16.09 Fair CLR 25.6 23.9 90% 27 76.07 1013.5
04 21:53 Calm 16.09 Fair CLR 26.7 23.3 82% 29 76.07 1013.5
04 20:53 SE 7 16.09 Fair CLR 25.6 23.9 90% 27 76.05 1013.1
04 19:53 SE 6 16.09 Fair CLR 28.3 24.4 79% 33 76.02 1012.6
04 18:53 Calm 16.09 Fair CLR 31.1 26.1 35.6 31.1 75% 39 76 1012.4
04 17:53 Calm 16.09 Fair CLR 33.9 24.4 58% 41 76 1012.5
04 16:53 SW 11 16.09 Fair CLR 34.4 22.8 51% 40 76 1012.5
04 15:53 SW 9 16.09 Fair CLR 35 23.9 53% 42 76.05 1013.1
04 14:53 SW 13 16.09 Fair CLR 35 22.2 47% 40 76.1 1013.7
04 13:53 W 13 16.09 Fair CLR 35 21.7 46% 39 76.15 1014.3
04 12:53 SW 13 16.09 Fair CLR 33.9 23.3 34.4 22.8 54% 40 76.2 1015.0
04 11:53 SW 11 16.09 Fair CLR 33.3 23.9 58% 39 76.23 1015.6
04 10:53 W 17 16.09 Fair CLR 31.7 23.3 61% 37 76.23 1015.6
04 09:53 SW 11 16.09 Fair CLR 30 23.3 67% 34 76.2 1015.3
04 08:53 SW 13 16.09 A Few Clouds FEW075 28.3 22.8 72% 32 76.2 1015.1
04 07:53 SW 9 16.09 Fair CLR 26.1 22.2 79% 28 76.17 1014.9
04 06:53 S 7 16.09 Fair CLR 22.8 21.7 23.9 22.2 94% 76.12 1014.2
04 05:53 S 7 16.09 Partly Cloudy SCT085 22.8 21.7 94% 76.12 1014.3
04 04:53 S 7 16.09 Fair CLR 23.3 21.7 91% 76.12 1014.2
04 03:53 S 7 16.09 Fair CLR 23.3 21.7 91% 76.1 1013.8
04 02:53 S 7 16.09 Fair CLR 23.3 21.7 91% 76.1 1013.7
04 01:53 S 7 16.09 Fair CLR 22.8 21.7 94% 76.12 1014.1
04 00:53 S 7 16.09 Fair CLR 23.9 22.2 30.6 22.8 90% 23 76.12 1014.2
03 23:53 SE 6 16.09 Fair CLR 23.3 22.2 94% 76.15 1014.3
03 22:53 SE 6 16.09 Fair CLR 23.9 22.2 90% 23 76.12 1014.0
03 21:53 S 9 16.09 Fair CLR 26.1 22.2 79% 28 76.1 1013.8
03 20:53 S 9 16.09 Fair CLR 26.1 23.3 85% 28 76.07 1013.5
03 19:53 SE 9 14.48 Fair CLR 27.2 23.9 82% 30 76.05 1013.1
03 18:53 Calm 16.09 Fair CLR 30.6 27.2 34.4 30.6 82% 40 76.05 1013.1
03 17:53 S 6 16.09 Fair CLR 32.8 25 64% 40 76.05 1013.0
03 16:53 S 7 16.09 Fair CLR 34.4 23.3 52% 40 76.05 1013.1
03 15:53 SW 9 16.09 Fair CLR 34.4 22.8 51% 40 76.07 1013.4
03 14:53 SW 9 16.09 Fair CLR 34.4 23.3 52% 40 76.1 1013.9
03 13:53 SW 9 16.09 Fair CLR 33.9 23.9 56% 40 76.15 1014.5
03 12:53 SW 13 16.09 Fair CLR 33.3 23.9 33.3 23.3 58% 39 76.17 1014.9
03 11:53 Vrbl 7 16.09 Fair CLR 32.2 23.9 62% 38 76.2 1015.2
03 10:53 SW 9 16.09 Fair CLR 31.1 23.3 63% 36 76.23 1015.6
03 09:53 Vrbl 11 16.09 Fair CLR 30 23.3 67% 34 76.23 1015.4
03 08:53 SW 9 16.09 Fair CLR 27.8 22.8 74% 31 76.2 1015.3
03 07:53 S 13 16.09 Fair CLR 25 22.2 85% 26 76.23 1015.5
03 06:53 S 11 16.09 Fair CLR 23.3 21.1 23.9 22.2 88% 76.2 1015.3
03 05:53 S 9 16.09 Fair CLR 22.2 21.1 94% 76.2 1015.0
03 04:53 S 9 16.09 Fair CLR 22.2 21.1 94% 76.17 1014.9
03 03:53 S 9 16.09 Fair CLR 22.8 21.1 90% 76.17 1014.9
03 02:53 S 6 16.09 Fair CLR 22.8 21.1 90% 76.17 1014.9
03 01:53 SW 7 16.09 Fair CLR 23.3 21.7 91% 76.17 1015.0
03 00:53 S 7 16.09 Fair CLR 23.9 21.7 30 23.9 88% 24 76.17 1014.9
02 23:53 S 11 16.09 Fair CLR 25 21.1 79% 26 76.15 1014.5
02 22:53 S 11 16.09 Fair CLR 25 21.7 82% 26 76.15 1014.3
02 21:53 S 11 16.09 Fair CLR 26.1 22.2 79% 28 76.15 1014.3
02 20:53 S 11 16.09 Fair CLR 26.7 22.8 79% 29 76.15 1014.3
02 19:53 S 9 16.09 Fair CLR 27.2 23.9 82% 30 76.1 1013.9
Date Time (cdt) Wind (kph) Vis. (km) Weather Sky Cond. Air Dwpt Max. Min. Relative Humidity Wind Chill (°C) Heat Index (°C) altimeter (cm) sea level (mb) 1 hr 3 hr 6 hr
6 hour
Temperature (ºC) Pressure Precipitation (cm)